Time;durP1;ratioP1;P1;durP2;ratioP2;P2;SDS_P1;SDS_P2;PMS_P1;PMS_P2;Temp;Humidity;BMP_temperature;BMP_pressure;BME280_temperature;BME280_humidity;BME280_pressure;Samples;Min_cycle;Max_cycle;Signal;HPM_P1;HPM_P2
2023/05/03 04:32:10;;;;;;;13.20;7.70;;;14.20;64.60;;;;;;5098587;23;20517;-74
2023/05/03 04:34:36;;;;;;;14.63;6.45;;;14.20;65.00;;;;;;4951364;28;20039;-74
2023/05/03 04:37:03;;;;;;;13.98;6.88;;;14.00;65.10;;;;;;4936891;29;20028;-74
2023/05/03 04:39:29;;;;;;;15.63;7.20;;;14.10;64.70;;;;;;4936311;29;20036;-74
2023/05/03 04:41:55;;;;;;;15.70;7.28;;;14.10;64.80;;;;;;4935947;29;20083;-74
2023/05/03 04:44:21;;;;;;;13.57;6.55;;;14.10;64.70;;;;;;4936235;29;20084;-74
2023/05/03 04:46:46;;;;;;;10.48;6.63;;;14.00;65.30;;;;;;4935641;29;20036;-74
2023/05/03 04:49:12;;;;;;;13.55;7.57;;;14.00;65.10;;;;;;4941159;29;20435;-75
2023/05/03 04:51:38;;;;;;;14.45;7.68;;;14.00;65.10;;;;;;4937507;29;20122;-77
2023/05/03 04:54:03;;;;;;;11.88;6.95;;;14.00;64.90;;;;;;4940403;29;20075;-77
2023/05/03 04:56:30;;;;;;;19.30;7.97;;;13.90;65.20;;;;;;4937946;29;20032;-75
2023/05/03 04:58:55;;;;;;;15.35;6.75;;;13.80;65.50;;;;;;4935404;29;20042;-75
2023/05/03 05:01:25;;;;;;;13.05;7.50;;;13.90;65.00;;;;;;4917518;28;20023;-74
2023/05/03 05:03:52;;;;;;;13.10;6.90;;;14.00;64.80;;;;;;4944248;29;20115;-75
2023/05/03 05:06:17;;;;;;;12.55;7.32;;;14.00;64.50;;;;;;4942146;28;20026;-76
2023/05/03 05:08:43;;;;;;;13.77;7.22;;;14.00;64.40;;;;;;4953572;29;20039;-76
2023/05/03 05:11:09;;;;;;;21.20;8.30;;;14.00;64.60;;;;;;4947127;29;20019;-74
2023/05/03 05:13:35;;;;;;;17.08;7.43;;;14.00;64.60;;;;;;4971374;28;20086;-77
2023/05/03 05:16:01;;;;;;;11.93;8.10;;;14.00;64.00;;;;;;4940912;28;20030;-76
2023/05/03 05:18:26;;;;;;;11.95;6.65;;;14.00;64.00;;;;;;4921359;29;20498;-75
2023/05/03 05:20:52;;;;;;;15.10;7.78;;;14.00;64.40;;;;;;4933024;29;20297;-76
2023/05/03 05:23:18;;;;;;;13.52;7.50;;;14.10;63.90;;;;;;4941030;29;20035;-76
2023/05/03 05:25:45;;;;;;;12.60;7.80;;;14.10;64.20;;;;;;4960259;28;20110;-75
2023/05/03 05:28:10;;;;;;;14.82;8.45;;;14.00;64.30;;;;;;4949810;29;20023;-76
2023/05/03 05:30:36;;;;;;;15.63;8.05;;;14.10;64.20;;;;;;4952600;29;20046;-77
2023/05/03 05:33:07;;;;;;;15.32;8.30;;;14.00;64.20;;;;;;4936425;29;20105;-79
2023/05/03 05:35:34;;;;;;;16.17;7.93;;;14.00;64.10;;;;;;4938055;29;20486;-79
2023/05/03 05:37:59;;;;;;;16.90;8.60;;;14.00;63.90;;;;;;4938414;29;20406;-79
2023/05/03 05:40:25;;;;;;;14.68;8.23;;;14.00;63.90;;;;;;4929327;29;20032;-79
2023/05/03 05:42:51;;;;;;;14.85;8.25;;;13.90;63.90;;;;;;4922674;29;20119;-78
2023/05/03 05:45:17;;;;;;;13.48;8.35;;;14.00;63.70;;;;;;4932048;29;20015;-79
2023/05/03 05:47:43;;;;;;;13.63;7.57;;;14.00;63.90;;;;;;4929783;29;20071;-80
2023/05/03 05:50:09;;;;;;;14.20;8.65;;;14.00;63.70;;;;;;4932167;29;20394;-79
2023/05/03 05:52:34;;;;;;;11.27;6.38;;;13.90;63.50;;;;;;4917553;29;20122;-79
2023/05/03 05:55:00;;;;;;;16.17;8.10;;;13.90;64.00;;;;;;4918512;29;20047;-79
2023/05/03 05:57:26;;;;;;;15.07;8.23;;;13.80;64.00;;;;;;4919426;29;20115;-79
2023/05/03 05:59:51;;;;;;;11.25;7.93;;;13.90;63.70;;;;;;4919225;29;20025;-79
2023/05/03 06:02:21;;;;;;;12.50;8.27;;;13.80;63.40;;;;;;4919788;29;20027;-79
2023/05/03 06:04:47;;;;;;;11.38;7.80;;;13.70;63.50;;;;;;4919250;29;20032;-79
2023/05/03 06:07:15;;;;;;;12.55;8.93;;;13.80;64.10;;;;;;4919859;29;20474;-79
2023/05/03 06:09:41;;;;;;;13.68;8.27;;;13.70;63.00;;;;;;4933248;29;20036;-79
2023/05/03 06:12:07;;;;;;;14.43;7.55;;;13.70;63.30;;;;;;4937141;29;20030;-79
2023/05/03 06:14:32;;;;;;;12.15;7.97;;;13.70;63.00;;;;;;4936870;29;20479;-79
2023/05/03 06:16:59;;;;;;;9.07;6.30;;;13.70;62.90;;;;;;4919174;29;20084;-79
2023/05/03 06:19:25;;;;;;;11.85;7.90;;;13.80;63.10;;;;;;4922663;29;20024;-78
2023/05/03 06:21:50;;;;;;;12.98;7.78;;;13.90;63.20;;;;;;4918259;29;20080;-79
2023/05/03 06:24:19;;;;;;;13.82;7.47;;;13.90;62.90;;;;;;4917730;29;20036;-79
2023/05/03 06:26:46;;;;;;;12.38;7.35;;;14.00;62.80;;;;;;4919830;29;20032;-79
2023/05/03 06:29:12;;;;;;;12.30;7.97;;;14.00;62.50;;;;;;4922586;29;20059;-79
2023/05/03 06:31:37;;;;;;;10.23;6.47;;;14.00;62.10;;;;;;4922808;29;20071;-79
2023/05/03 06:34:03;;;;;;;9.07;6.30;;;14.10;61.90;;;;;;4934208;29;20032;-79
2023/05/03 06:36:31;;;;;;;12.32;7.95;;;14.20;61.70;;;;;;4941946;29;20447;-79
2023/05/03 06:38:56;;;;;;;11.18;7.72;;;14.20;62.00;;;;;;4941814;29;20034;-79
2023/05/03 06:41:22;;;;;;;13.18;6.68;;;14.20;61.30;;;;;;4941782;29;20110;-79
2023/05/03 06:43:48;;;;;;;9.55;6.32;;;14.20;61.40;;;;;;4939809;29;20111;-79
2023/05/03 06:46:14;;;;;;;10.88;6.20;;;14.20;60.90;;;;;;4940289;29;20083;-79
2023/05/03 06:48:39;;;;;;;11.45;6.72;;;14.30;61.00;;;;;;4938430;29;20031;-79
2023/05/03 06:51:05;;;;;;;10.43;6.82;;;14.70;60.30;;;;;;4924211;29;20024;-79
2023/05/03 06:53:31;;;;;;;9.50;6.07;;;14.80;60.00;;;;;;4937209;29;20038;-79
2023/05/03 06:55:56;;;;;;;11.23;6.53;;;14.70;59.80;;;;;;4941553;29;20028;-79
2023/05/03 06:58:22;;;;;;;8.48;5.90;;;14.80;59.80;;;;;;4941467;29;20562;-79
2023/05/03 07:00:52;;;;;;;10.43;6.00;;;14.80;59.30;;;;;;4941076;29;20032;-79
2023/05/03 07:03:17;;;;;;;12.02;6.68;;;14.80;59.40;;;;;;4928845;29;20040;-80
2023/05/03 07:05:43;;;;;;;9.65;5.55;;;14.90;59.50;;;;;;4941204;29;20406;-79
2023/05/03 07:08:09;;;;;;;10.60;6.07;;;14.90;59.50;;;;;;4941482;29;20028;-79
2023/05/03 07:10:35;;;;;;;8.10;5.22;;;15.00;58.60;;;;;;4928386;29;20040;-79
2023/05/03 07:13:01;;;;;;;6.38;4.93;;;15.20;58.80;;;;;;4922300;29;20068;-79
2023/05/03 07:15:26;;;;;;;7.47;5.97;;;16.00;56.20;;;;;;4922389;29;20083;-79
2023/05/03 07:17:52;;;;;;;8.73;5.50;;;18.00;52.00;;;;;;4922033;29;20024;-79
2023/05/03 07:20:18;;;;;;;7.47;4.60;;;20.00;46.30;;;;;;4922337;29;20036;-80
2023/05/03 07:22:44;;;;;;;8.27;5.00;;;21.90;42.90;;;;;;4938363;29;20035;-80
2023/05/03 07:25:11;;;;;;;8.18;4.22;;;23.30;38.20;;;;;;4937185;29;20532;-80
2023/05/03 07:27:36;;;;;;;7.72;4.85;;;24.00;38.10;;;;;;4940006;29;20036;-80
2023/05/03 07:30:03;;;;;;;6.55;4.70;;;23.80;37.90;;;;;;4939633;29;20490;-80
2023/05/03 07:32:29;;;;;;;6.05;4.28;;;24.30;37.10;;;;;;4940858;29;20124;-80
2023/05/03 07:34:54;;;;;;;6.82;5.07;;;24.10;35.90;;;;;;4940223;29;20079;-80
2023/05/03 07:37:20;;;;;;;5.40;4.25;;;24.80;35.40;;;;;;4940848;29;20056;-80
2023/05/03 07:39:46;;;;;;;7.07;4.43;;;25.60;34.70;;;;;;4939147;29;20024;-80
2023/05/03 07:42:11;;;;;;;5.75;4.53;;;25.80;33.70;;;;;;4935753;29;20071;-80
2023/05/03 07:44:37;;;;;;;6.30;3.88;;;27.40;31.30;;;;;;4920127;29;20119;-81
2023/05/03 07:47:03;;;;;;;4.82;3.65;;;28.60;31.10;;;;;;4921883;29;20036;-79
2023/05/03 07:49:29;;;;;;;5.80;3.67;;;29.80;29.70;;;;;;4920243;29;20115;-78
2023/05/03 07:51:57;;;;;;;5.70;3.78;;;30.60;27.70;;;;;;4921881;29;20024;-79
2023/05/03 07:54:22;;;;;;;3.60;3.05;;;31.00;27.00;;;;;;4920799;29;20028;-80
2023/05/03 07:56:48;;;;;;;4.05;3.38;;;31.20;27.70;;;;;;4940747;29;20525;-79
2023/05/03 07:59:14;;;;;;;5.75;3.20;;;31.90;24.50;;;;;;4940622;29;20078;-79
2023/05/03 08:01:39;;;;;;;5.28;3.50;;;32.30;25.40;;;;;;4922554;29;20475;-79
2023/05/03 08:04:05;;;;;;;7.75;3.35;;;32.90;24.90;;;;;;4934772;29;20486;-79
2023/05/03 08:06:31;;;;;;;6.93;3.78;;;33.00;23.80;;;;;;4940395;29;20478;-80
2023/05/03 08:08:57;;;;;;;4.10;3.40;;;31.80;24.00;;;;;;4939487;29;20022;-79
2023/05/03 08:11:23;;;;;;;5.72;3.20;;;32.10;25.20;;;;;;4939188;29;20123;-80
2023/05/03 08:13:48;;;;;;;4.20;2.97;;;33.00;25.10;;;;;;4927542;29;20542;-80
2023/05/03 08:16:15;;;;;;;5.38;3.38;;;33.30;22.50;;;;;;4924219;29;20104;-79
2023/05/03 08:18:40;;;;;;;4.78;3.30;;;33.30;23.40;;;;;;4940303;29;20042;-80
2023/05/03 08:21:10;;;;;;;4.28;3.17;;;32.30;23.10;;;;;;4938797;29;20573;-80
2023/05/03 08:23:36;;;;;;;6.03;3.20;;;31.70;24.00;;;;;;4938625;29;20450;-80
2023/05/03 08:26:03;;;;;;;3.30;2.83;;;32.00;25.00;;;;;;4934605;29;20028;-80
2023/05/03 08:28:29;;;;;;;3.13;2.60;;;33.00;24.40;;;;;;4919591;29;20418;-80
2023/05/03 08:30:55;;;;;;;3.00;2.67;;;33.70;24.70;;;;;;4919235;29;20048;-79
2023/05/03 08:33:21;;;;;;;4.18;2.95;;;34.60;22.90;;;;;;4930396;29;20083;-80
2023/05/03 08:35:47;;;;;;;3.03;2.53;;;34.30;22.80;;;;;;4939898;29;20115;-80
2023/05/03 08:38:12;;;;;;;3.08;2.65;;;33.90;23.50;;;;;;4939838;29;20028;-80
2023/05/03 08:40:39;;;;;;;5.10;2.80;;;34.00;23.60;;;;;;4939188;29;20087;-80
2023/05/03 08:43:07;;;;;;;4.03;2.88;;;34.00;23.30;;;;;;4939757;29;20967;-80
2023/05/03 08:45:33;;;;;;;;;;;33.90;22.80;;;;;;4927317;29;20032;-79
2023/05/03 08:48:01;;;;;;;6.68;3.30;;;32.50;23.40;;;;;;4920677;29;20500;-80
2023/05/03 08:50:26;;;;;;;5.25;3.17;;;31.70;23.80;;;;;;4928902;29;20036;-79
2023/05/03 08:52:52;;;;;;;4.68;3.50;;;31.70;24.00;;;;;;4939592;29;20038;-79
2023/05/03 08:55:18;;;;;;;4.05;2.78;;;31.00;25.20;;;;;;4937443;29;20024;-79
2023/05/03 08:57:43;;;;;;;5.15;2.80;;;31.40;26.20;;;;;;4939430;29;20031;-79
2023/05/03 09:00:10;;;;;;;4.90;3.03;;;31.50;25.00;;;;;;4938108;29;20051;-80
2023/05/03 09:02:38;;;;;;;4.32;2.97;;;31.50;25.40;;;;;;4936056;29;20063;-79
2023/05/03 09:05:25;;;;;;;3.55;2.50;;;31.20;24.90;;;;;;4924382;29;20024;-80
2023/05/03 09:08:08;;;;;;;5.88;3.05;;;31.80;25.20;;;;;;4925441;29;20032;-79
2023/05/03 09:10:37;;;;;;;6.53;3.58;;;32.00;23.90;;;;;;4924709;29;20051;-79
2023/05/03 09:13:03;;;;;;;3.95;3.13;;;31.30;24.10;;;;;;4919155;29;20038;-80
2023/05/03 09:15:29;;;;;;;3.88;2.85;;;31.10;24.40;;;;;;4919775;29;20147;-80
2023/05/03 09:18:16;;;;;;;3.75;2.90;;;30.80;25.60;;;;;;4920320;29;20122;-79
2023/05/03 09:20:52;;;;;;;6.75;3.03;;;31.30;26.40;;;;;;4929852;29;20407;-79
2023/05/03 09:23:27;;;;;;;5.05;3.47;;;31.60;24.90;;;;;;4919901;29;20043;-79
2023/05/03 09:25:53;;;;;;;6.05;3.28;;;31.20;24.50;;;;;;4920334;29;20107;-79
2023/05/03 09:28:19;;;;;;;5.45;3.00;;;31.00;24.70;;;;;;4924668;29;20095;-79
2023/05/03 09:30:46;;;;;;;7.97;2.88;;;31.10;25.50;;;;;;4933546;29;20056;-79
2023/05/03 09:33:20;;;;;;;5.18;3.15;;;31.90;26.20;;;;;;4928485;29;20120;-79
2023/05/03 09:36:00;;;;;;;4.55;2.38;;;31.70;24.60;;;;;;4933230;29;20062;-79
2023/05/03 09:38:27;;;;;;;4.22;2.53;;;31.10;25.10;;;;;;4919823;29;20036;-79
2023/05/03 09:40:52;;;;;;;4.32;2.42;;;31.80;26.00;;;;;;4919690;29;20032;-81
2023/05/03 09:43:18;;;;;;;4.10;3.17;;;32.00;25.60;;;;;;4928274;29;20091;-79
2023/05/03 09:45:43;;;;;;;6.53;3.25;;;31.80;24.30;;;;;;4919606;29;20036;-79
2023/05/03 09:48:10;;;;;;;3.28;2.60;;;31.80;24.50;;;;;;4919567;29;20064;-79
2023/05/03 09:50:36;;;;;;;3.90;2.85;;;31.10;25.60;;;;;;4919493;29;20024;-80
2023/05/03 09:53:04;;;;;;;4.20;2.95;;;31.30;24.80;;;;;;4936127;29;20116;-80
2023/05/03 09:55:38;;;;;;;4.90;2.80;;;31.00;25.70;;;;;;4938570;29;20027;-79
2023/05/03 09:58:05;;;;;;;5.63;2.78;;;30.90;25.00;;;;;;4938608;29;20023;-80
2023/05/03 10:00:36;;;;;;;2.83;2.30;;;30.90;24.50;;;;;;4929132;29;20088;-79
2023/05/03 10:03:09;;;;;;;2.75;2.15;;;30.70;25.50;;;;;;4923025;29;20031;-79
2023/05/03 10:05:44;;;;;;;5.18;2.67;;;30.80;25.70;;;;;;4919507;29;20541;-79
2023/05/03 10:08:18;;;;;;;3.90;2.40;;;30.80;26.30;;;;;;4932427;29;20031;-79
2023/05/03 10:10:49;;;;;;;6.63;2.08;;;30.50;25.80;;;;;;4928962;29;20035;-79
2023/05/03 10:13:15;;;;;;;3.97;2.60;;;30.00;26.20;;;;;;4921481;29;20120;-79
2023/05/03 10:15:42;;;;;;;5.45;2.42;;;29.80;26.50;;;;;;4922106;29;20517;-79
2023/05/03 10:18:11;;;;;;;4.40;2.80;;;29.80;27.20;;;;;;4937582;29;20086;-79
2023/05/03 10:20:43;;;;;;;3.75;2.67;;;29.60;26.70;;;;;;4925098;29;20036;-79
2023/05/03 10:23:11;;;;;;;4.10;2.75;;;29.10;27.50;;;;;;4919566;29;20032;-79
2023/05/03 10:25:38;;;;;;;4.85;2.83;;;29.30;27.40;;;;;;4937082;29;20024;-80
2023/05/03 10:28:08;;;;;;;5.55;2.90;;;28.50;28.10;;;;;;4937175;29;20024;-80
2023/05/03 10:30:38;;;;;;;6.68;3.28;;;27.70;29.10;;;;;;4937958;29;20040;-80
2023/05/03 10:33:13;;;;;;;4.10;3.03;;;26.80;29.70;;;;;;4936334;29;20067;-81
2023/05/03 10:35:49;;;;;;;5.10;2.67;;;25.90;30.50;;;;;;4938084;29;20032;-79
2023/05/03 10:38:18;;;;;;;5.15;2.72;;;25.20;32.10;;;;;;4932825;29;20459;-79
2023/05/03 10:40:44;;;;;;;5.33;2.67;;;24.80;33.10;;;;;;4919134;29;20044;-79
2023/05/03 10:43:36;;;;;;;4.32;2.65;;;24.70;34.50;;;;;;4917694;29;20032;-80
2023/05/03 10:46:03;;;;;;;4.68;3.30;;;24.80;34.70;;;;;;4917779;29;20051;-79
2023/05/03 10:48:30;;;;;;;4.63;3.10;;;24.60;34.60;;;;;;4917840;29;20075;-79
2023/05/03 10:50:56;;;;;;;3.60;2.60;;;24.30;34.80;;;;;;4919028;29;20032;-79
2023/05/03 10:53:42;;;;;;;4.57;3.00;;;24.10;35.10;;;;;;4930277;29;20027;-79
2023/05/03 10:56:14;;;;;;;3.83;2.25;;;23.80;34.60;;;;;;4933151;29;20047;-79
2023/05/03 10:58:48;;;;;;;5.45;2.80;;;23.80;35.40;;;;;;4917855;29;20028;-79
2023/05/03 11:01:16;;;;;;;3.30;2.60;;;23.50;34.20;;;;;;4936137;29;20035;-79
2023/05/03 11:04:07;;;;;;;8.85;2.67;;;23.50;35.50;;;;;;4929343;29;20051;-79
2023/05/03 11:06:44;;;;;;;5.53;2.33;;;23.30;35.70;;;;;;4936842;29;20031;-80
2023/05/03 11:09:13;;;;;;;4.28;2.45;;;23.30;36.20;;;;;;4935117;29;20020;-80
2023/05/03 11:11:40;;;;;;;4.22;2.65;;;23.30;36.20;;;;;;4932376;29;20074;-80
2023/05/03 11:14:07;;;;;;;5.30;2.33;;;23.40;38.00;;;;;;4936257;29;20038;-79
2023/05/03 11:16:35;;;;;;;4.78;2.50;;;23.50;35.10;;;;;;4941152;29;20103;-79
2023/05/03 11:19:01;;;;;;;7.22;2.63;;;23.40;35.70;;;;;;4924482;29;20028;-79
2023/05/03 11:21:27;;;;;;;5.47;2.30;;;23.40;35.40;;;;;;4920830;29;20036;-80
2023/05/03 11:23:53;;;;;;;4.35;2.30;;;23.50;35.60;;;;;;4920964;29;20032;-80
2023/05/03 11:26:24;;;;;;;4.88;2.20;;;23.30;35.50;;;;;;4921871;29;20051;-79
2023/05/03 11:28:50;;;;;;;5.00;2.47;;;23.40;35.90;;;;;;4940486;29;20024;-79
2023/05/03 11:31:16;;;;;;;5.18;2.45;;;23.50;36.10;;;;;;4940412;29;20051;-79
2023/05/03 11:33:42;;;;;;;6.75;2.40;;;23.40;36.00;;;;;;4940963;29;20027;-79
2023/05/03 11:36:08;;;;;;;5.95;2.60;;;23.20;36.20;;;;;;4935797;29;20051;-80
2023/05/03 11:38:36;;;;;;;5.47;2.80;;;23.00;35.70;;;;;;4921892;29;20070;-80
2023/05/03 11:41:16;;;;;;;6.97;2.40;;;22.80;36.00;;;;;;4920579;29;20130;-79
2023/05/03 11:43:48;;;;;;;3.70;2.38;;;22.80;37.00;;;;;;4921783;29;20024;-79
2023/05/03 11:46:21;;;;;;;3.58;2.42;;;22.90;36.60;;;;;;4935184;29;20099;-79
2023/05/03 11:48:47;;;;;;;6.50;2.88;;;22.80;36.00;;;;;;4936103;29;20020;-79
2023/05/03 11:51:13;;;;;;;3.10;1.70;;;23.00;36.00;;;;;;4920655;29;20072;-79
2023/05/03 11:53:41;;;;;;;4.45;2.33;;;23.00;37.10;;;;;;4921631;29;20032;-80
2023/05/03 11:56:12;;;;;;;4.45;2.15;;;23.00;36.60;;;;;;4922000;29;20032;-79
2023/05/03 11:58:59;;;;;;;5.00;2.08;;;23.10;37.50;;;;;;4921665;29;20064;-79
2023/05/03 12:01:26;;;;;;;4.28;2.28;;;23.10;38.50;;;;;;4921496;29;20028;-80
2023/05/03 12:04:03;;;;;;;5.13;2.88;;;23.30;38.00;;;;;;4932544;29;20438;-79
2023/05/03 12:06:32;;;;;;;3.22;2.22;;;23.10;37.00;;;;;;4940660;29;20501;-79
2023/05/03 12:08:59;;;;;;;8.18;2.65;;;23.20;37.50;;;;;;4934516;29;20020;-80
2023/05/03 12:11:25;;;;;;;6.40;2.30;;;23.20;37.20;;;;;;4933110;29;20032;-79
2023/05/03 12:14:01;;;;;;;3.83;2.08;;;23.30;38.30;;;;;;4940489;29;20163;-81
2023/05/03 12:16:28;;;;;;;3.60;1.95;;;23.60;37.00;;;;;;4938717;29;20123;-80
2023/05/03 12:19:01;;;;;;;4.88;2.10;;;23.50;36.60;;;;;;4938201;29;20028;-79
2023/05/03 12:21:47;;;;;;;3.13;1.90;;;23.40;36.90;;;;;;4938911;29;20526;-79
2023/05/03 12:24:16;;;;;;;3.67;2.45;;;23.30;35.80;;;;;;4939037;29;20110;-79
2023/05/03 12:26:43;;;;;;;5.20;2.60;;;23.20;36.70;;;;;;4938142;29;20490;-79
2023/05/03 12:29:09;;;;;;;5.25;2.42;;;23.20;36.70;;;;;;4939952;29;20028;-79
2023/05/03 12:31:36;;;;;;;2.58;2.00;;;23.20;37.20;;;;;;4939579;29;20581;-79
2023/05/03 12:34:03;;;;;;;5.53;2.15;;;23.20;38.00;;;;;;4934728;29;20151;-83
2023/05/03 12:36:31;;;;;;;3.55;2.33;;;23.20;36.20;;;;;;4921853;29;20094;-80
2023/05/03 12:38:57;;;;;;;5.53;2.00;;;23.20;36.60;;;;;;4929030;29;20028;-81
2023/05/03 12:41:26;;;;;;;2.83;1.80;;;23.30;37.10;;;;;;4923139;29;20114;-79
2023/05/03 12:43:52;;;;;;;4.90;2.28;;;23.30;38.10;;;;;;4929753;29;20031;-81
2023/05/03 12:46:20;;;;;;;2.95;1.75;;;23.50;38.50;;;;;;4924171;29;20028;-79
2023/05/03 12:48:49;;;;;;;5.40;2.55;;;23.40;37.00;;;;;;4928978;29;20035;-79
2023/05/03 12:51:14;;;;;;;4.20;2.33;;;23.20;35.70;;;;;;4927947;29;20020;-79
2023/05/03 12:53:40;;;;;;;3.78;1.95;;;23.20;36.40;;;;;;4928722;29;20036;-79
2023/05/03 12:56:07;;;;;;;4.57;2.30;;;23.10;38.10;;;;;;4930545;29;20042;-79
2023/05/03 12:58:33;;;;;;;6.13;2.75;;;23.20;37.30;;;;;;4924447;29;20039;-79
2023/05/03 13:00:58;;;;;;;4.20;2.38;;;23.10;37.30;;;;;;4935952;29;20038;-81
2023/05/03 13:03:24;;;;;;;3.75;2.17;;;23.20;38.00;;;;;;4937011;29;20032;-81
2023/05/03 13:05:50;;;;;;;5.07;2.53;;;23.40;38.30;;;;;;4938793;29;20036;-81
2023/05/03 13:08:16;;;;;;;4.53;2.10;;;23.50;37.50;;;;;;4934747;29;20031;-80
2023/05/03 13:10:42;;;;;;;3.50;2.20;;;23.60;36.70;;;;;;4932453;29;20060;-81
2023/05/03 13:13:08;;;;;;;3.95;1.95;;;23.70;37.00;;;;;;4920404;29;20035;-80
2023/05/03 13:15:35;;;;;;;3.53;2.90;;;23.80;37.70;;;;;;4918955;29;20055;-80
2023/05/03 13:18:03;;;;;;;3.70;2.35;;;23.90;38.60;;;;;;4924191;29;20584;-80
2023/05/03 13:20:32;;;;;;;5.65;2.53;;;23.70;35.00;;;;;;4920950;29;20039;-80
2023/05/03 13:22:58;;;;;;;5.03;2.15;;;23.80;36.30;;;;;;4935611;29;20035;-80
2023/05/03 13:25:25;;;;;;;4.53;2.00;;;23.70;36.20;;;;;;4937043;29;20024;-80
2023/05/03 13:27:52;;;;;;;5.25;2.47;;;23.80;37.20;;;;;;4918955;29;20030;-80
2023/05/03 13:30:20;;;;;;;5.30;2.63;;;23.80;36.40;;;;;;4920168;29;20083;-80
2023/05/03 13:32:46;;;;;;;4.47;2.20;;;24.00;36.40;;;;;;4922717;29;20019;-79
2023/05/03 13:35:12;;;;;;;3.53;2.25;;;23.90;36.00;;;;;;4923787;29;20039;-76
2023/05/03 13:37:37;;;;;;;4.95;2.42;;;24.10;36.60;;;;;;4924140;29;20032;-82
2023/05/03 13:40:04;;;;;;;3.75;2.03;;;23.90;34.10;;;;;;4927666;29;20034;-81
2023/05/03 13:42:29;;;;;;;4.88;1.90;;;23.80;34.30;;;;;;4928376;29;20383;-81
2023/05/03 13:44:55;;;;;;;5.25;1.67;;;23.80;35.00;;;;;;4927362;29;20031;-81
2023/05/03 13:47:21;;;;;;;5.20;1.90;;;23.90;35.30;;;;;;4926849;29;20020;-81
2023/05/03 13:49:47;;;;;;;4.93;2.72;;;23.90;35.70;;;;;;4929407;29;20031;-81
2023/05/03 13:52:13;;;;;;;5.80;2.42;;;23.80;34.30;;;;;;4927952;29;20082;-82
2023/05/03 13:54:41;;;;;;;2.70;1.80;;;23.80;35.30;;;;;;4927383;29;20175;-82
2023/05/03 13:57:06;;;;;;;4.25;1.52;;;23.90;34.10;;;;;;4932966;29;20024;-81
2023/05/03 13:59:32;;;;;;;3.67;2.17;;;23.70;34.40;;;;;;4927935;29;20043;-81
2023/05/03 14:01:58;;;;;;;2.92;1.92;;;23.80;35.50;;;;;;4925856;29;20466;-81
2023/05/03 14:04:24;;;;;;;6.90;2.28;;;23.90;36.00;;;;;;4927453;29;20505;-81
2023/05/03 14:06:50;;;;;;;4.90;1.85;;;23.80;34.40;;;;;;4926652;29;20020;-81
2023/05/03 14:09:16;;;;;;;3.83;1.88;;;23.80;34.60;;;;;;4928795;29;20028;-82
2023/05/03 14:11:42;;;;;;;3.53;1.77;;;23.80;35.10;;;;;;4925681;29;20560;-82
2023/05/03 14:14:07;;;;;;;2.38;1.60;;;23.60;34.30;;;;;;4925202;29;20118;-80
2023/05/03 14:16:33;;;;;;;6.95;2.25;;;23.60;33.80;;;;;;4926636;29;20025;-81
2023/05/03 14:18:59;;;;;;;2.90;1.95;;;23.50;34.20;;;;;;4923547;29;20031;-82
2023/05/03 14:21:25;;;;;;;6.82;1.88;;;23.50;34.40;;;;;;4927517;29;20118;-82
2023/05/03 14:23:51;;;;;;;4.10;1.80;;;23.70;34.80;;;;;;4927514;29;20501;-82
2023/05/03 14:26:18;;;;;;;5.20;1.98;;;23.60;34.90;;;;;;4930643;29;20027;-83
2023/05/03 14:28:45;;;;;;;4.32;2.10;;;23.60;34.30;;;;;;4924914;29;20494;-79
2023/05/03 14:31:11;;;;;;;3.90;1.45;;;23.80;34.90;;;;;;4929050;29;20048;-85
2023/05/03 14:33:40;;;;;;;3.90;1.65;;;23.90;35.30;;;;;;4928577;29;20107;-92
2023/05/03 14:36:09;;;;;;;5.03;1.73;;;24.10;34.60;;;;;;4931883;29;20024;-80
2023/05/03 14:38:36;;;;;;;3.75;1.80;;;24.10;35.00;;;;;;4926854;29;20135;-77
2023/05/03 14:41:01;;;;;;;2.50;1.38;;;24.10;33.60;;;;;;4926096;29;20028;-76
2023/05/03 14:43:27;;;;;;;3.95;1.70;;;24.30;34.40;;;;;;4930154;29;20035;-76
2023/05/03 14:45:53;;;;;;;2.58;1.95;;;24.30;33.70;;;;;;4937379;29;20067;-76
2023/05/03 14:48:19;;;;;;;3.42;1.90;;;24.40;33.00;;;;;;4937070;29;20481;-76
2023/05/03 14:50:51;;;;;;;3.78;1.80;;;24.30;33.50;;;;;;4940338;29;20019;-74
2023/05/03 14:53:17;;;;;;;2.63;1.70;;;24.50;34.60;;;;;;4936574;29;20052;-76
2023/05/03 14:55:44;;;;;;;3.47;1.67;;;24.50;33.10;;;;;;4930287;29;20481;-78
2023/05/03 14:58:11;;;;;;;4.38;1.80;;;24.70;34.50;;;;;;4931847;29;20386;-77
2023/05/03 15:00:39;;;;;;;4.97;1.67;;;24.70;34.30;;;;;;4933045;29;20043;-77
2023/05/03 15:03:04;;;;;;;2.67;1.67;;;24.50;34.50;;;;;;4929673;29;20385;-76
2023/05/03 15:05:30;;;;;;;3.28;1.80;;;24.60;33.80;;;;;;4929865;29;20124;-77
2023/05/03 15:07:58;;;;;;;5.35;2.10;;;24.50;33.70;;;;;;4932873;29;20059;-77
2023/05/03 15:10:24;;;;;;;3.95;1.90;;;24.30;34.30;;;;;;4931296;29;20027;-77
2023/05/03 15:12:50;;;;;;;5.13;2.05;;;24.20;34.30;;;;;;4929529;29;20021;-77
2023/05/03 15:15:16;;;;;;;4.05;2.20;;;24.10;33.80;;;;;;4931825;29;20031;-77
2023/05/03 15:17:42;;;;;;;6.50;2.25;;;24.10;34.40;;;;;;4931035;29;20137;-77
2023/05/03 15:20:09;;;;;;;5.75;2.00;;;24.00;34.10;;;;;;4928208;29;20123;-77
2023/05/03 15:22:35;;;;;;;3.42;2.17;;;23.90;34.90;;;;;;4931916;29;20028;-76
2023/05/03 15:25:01;;;;;;;3.47;1.60;;;23.80;35.10;;;;;;4925217;29;20076;-77
2023/05/03 15:27:26;;;;;;;8.15;1.75;;;23.80;35.10;;;;;;4932894;29;20039;-77
2023/05/03 15:29:52;;;;;;;3.38;2.47;;;23.80;33.90;;;;;;4930381;29;20031;-77
2023/05/03 15:32:18;;;;;;;3.15;1.80;;;23.60;34.50;;;;;;4930793;29;20044;-77
2023/05/03 15:34:46;;;;;;;3.88;1.80;;;23.50;34.90;;;;;;4931914;29;20028;-78
2023/05/03 15:37:11;;;;;;;3.40;1.80;;;23.50;35.10;;;;;;4928121;29;20040;-77
2023/05/03 15:39:37;;;;;;;4.22;2.05;;;23.60;35.70;;;;;;4927117;29;20038;-77
2023/05/03 15:42:04;;;;;;;3.20;1.75;;;23.80;35.60;;;;;;4929955;29;20405;-77
2023/05/03 15:44:35;;;;;;;3.50;2.08;;;23.80;36.00;;;;;;4928704;29;20028;-77
2023/05/03 15:47:01;;;;;;;6.15;2.03;;;23.90;36.00;;;;;;4937554;29;20036;-78
2023/05/03 15:49:27;;;;;;;3.70;2.10;;;24.00;35.50;;;;;;4922125;29;20047;-77
2023/05/03 15:51:52;;;;;;;4.40;1.80;;;23.80;37.10;;;;;;4920990;29;20025;-77
2023/05/03 15:54:18;;;;;;;2.38;1.67;;;23.70;36.30;;;;;;4921544;29;20048;-77
2023/05/03 15:56:43;;;;;;;2.67;1.50;;;23.70;36.40;;;;;;4924347;29;20027;-77
2023/05/03 15:59:13;;;;;;;3.97;1.83;;;23.70;36.50;;;;;;4940280;29;20114;-77
2023/05/03 16:01:39;;;;;;;3.10;2.00;;;23.80;36.80;;;;;;4928071;29;20487;-77
2023/05/03 16:04:06;;;;;;;4.53;2.25;;;23.80;36.30;;;;;;4940228;29;20107;-77
2023/05/03 16:06:33;;;;;;;2.88;1.85;;;23.70;36.60;;;;;;4934588;29;20036;-78
2023/05/03 16:08:58;;;;;;;3.00;2.03;;;23.70;37.00;;;;;;4928437;29;20027;-77
2023/05/03 16:11:24;;;;;;;5.13;1.92;;;23.70;36.70;;;;;;4930776;29;20458;-78
2023/05/03 16:13:49;;;;;;;4.18;1.90;;;23.70;37.00;;;;;;4930693;29;20035;-77
2023/05/03 16:16:15;;;;;;;2.67;1.88;;;23.60;37.10;;;;;;4933820;29;20039;-77
2023/05/03 16:18:41;;;;;;;3.08;1.77;;;23.50;37.60;;;;;;4939155;29;20032;-77
2023/05/03 16:21:06;;;;;;;4.63;1.80;;;23.60;38.70;;;;;;4931996;29;20036;-77
2023/05/03 16:23:32;;;;;;;4.55;2.00;;;23.60;38.20;;;;;;4921184;29;20067;-78
2023/05/03 16:25:57;;;;;;;3.00;2.20;;;23.70;38.00;;;;;;4926177;29;20122;-78
2023/05/03 16:28:23;;;;;;;3.47;2.20;;;23.60;36.60;;;;;;4917019;29;20027;-78
2023/05/03 16:30:49;;;;;;;2.75;1.85;;;23.50;37.10;;;;;;4939472;29;20064;-78
2023/05/03 16:33:14;;;;;;;3.53;1.90;;;23.50;38.10;;;;;;4934980;29;20020;-77
2023/05/03 16:35:40;;;;;;;4.05;1.88;;;23.50;37.50;;;;;;4939143;29;20058;-77
2023/05/03 16:38:06;;;;;;;4.10;1.83;;;23.60;38.60;;;;;;4926772;29;20028;-77
2023/05/03 16:40:32;;;;;;;4.70;2.10;;;23.70;38.30;;;;;;4927298;29;20046;-77
2023/05/03 16:42:57;;;;;;;5.80;2.00;;;23.70;38.60;;;;;;4927370;29;20020;-77
2023/05/03 16:45:23;;;;;;;4.93;2.25;;;23.60;37.50;;;;;;4929576;29;20032;-77
2023/05/03 16:47:49;;;;;;;4.68;1.98;;;23.60;37.40;;;;;;4928693;29;20049;-77
2023/05/03 16:50:17;;;;;;;3.97;2.58;;;23.60;38.20;;;;;;4927225;29;20032;-77
2023/05/03 16:52:43;;;;;;;4.82;1.83;;;23.50;37.30;;;;;;4930426;29;20016;-77
2023/05/03 16:55:09;;;;;;;5.05;2.53;;;23.50;38.10;;;;;;4924173;29;20032;-78
2023/05/03 16:57:36;;;;;;;6.85;2.28;;;23.40;37.70;;;;;;4929164;29;20044;-78
2023/05/03 17:00:09;;;;;;;3.47;2.60;;;23.30;38.90;;;;;;4930768;29;20066;-76
2023/05/03 17:02:36;;;;;;;4.72;2.13;;;23.40;38.90;;;;;;4930596;29;20031;-75
2023/05/03 17:05:06;;;;;;;6.13;1.95;;;23.30;38.80;;;;;;4932012;29;20040;-78
2023/05/03 17:07:32;;;;;;;4.95;2.72;;;23.10;39.00;;;;;;4929321;29;20083;-76
2023/05/03 17:09:59;;;;;;;7.47;2.72;;;23.20;40.30;;;;;;4929316;29;20027;-77
2023/05/03 17:12:24;;;;;;;5.57;3.97;;;23.10;40.20;;;;;;4931283;29;20036;-77
2023/05/03 17:14:50;;;;;;;6.70;3.05;;;23.10;40.60;;;;;;4931455;29;20042;-77
2023/05/03 17:17:16;;;;;;;7.57;3.00;;;23.00;40.80;;;;;;4923412;29;20036;-77